sensor_id;sensor_type;location;lat;lon;timestamp;temperature;humidity
14022;DHT22;7086;48.116;11.580;2022-11-20T00:00:43;8.40;89.40
14022;DHT22;7086;48.116;11.580;2022-11-20T00:03:42;8.40;89.40
14022;DHT22;7086;48.116;11.580;2022-11-20T00:06:35;8.40;89.40
14022;DHT22;7086;48.116;11.580;2022-11-20T00:09:22;8.30;89.00
14022;DHT22;7086;48.116;11.580;2022-11-20T00:12:26;8.50;89.50
14022;DHT22;7086;48.116;11.580;2022-11-20T00:15:28;8.50;89.30
14022;DHT22;7086;48.116;11.580;2022-11-20T00:18:21;8.40;89.60
14022;DHT22;7086;48.116;11.580;2022-11-20T00:21:32;8.50;89.50
14022;DHT22;7086;48.116;11.580;2022-11-20T00:24:25;8.50;89.40
14022;DHT22;7086;48.116;11.580;2022-11-20T00:27:12;8.50;88.60
14022;DHT22;7086;48.116;11.580;2022-11-20T00:30:42;8.70;89.00
14022;DHT22;7086;48.116;11.580;2022-11-20T00:41:35;8.60;89.10
14022;DHT22;7086;48.116;11.580;2022-11-20T00:44:15;8.60;89.20
14022;DHT22;7086;48.116;11.580;2022-11-20T00:47:23;8.60;89.20
14022;DHT22;7086;48.116;11.580;2022-11-20T00:50:33;8.60;89.00
14022;DHT22;7086;48.116;11.580;2022-11-20T01:20:16;8.70;88.60
14022;DHT22;7086;48.116;11.580;2022-11-20T01:23:36;6.50;87.00
14022;DHT22;7086;48.116;11.580;2022-11-20T01:26:54;8.60;88.40
14022;DHT22;7086;48.116;11.580;2022-11-20T01:29:44;8.70;88.70
14022;DHT22;7086;48.116;11.580;2022-11-20T01:33:19;8.70;88.60
14022;DHT22;7086;48.116;11.580;2022-11-20T01:59:18;8.70;88.20
14022;DHT22;7086;48.116;11.580;2022-11-20T02:02:14;8.70;88.30
14022;DHT22;7086;48.116;11.580;2022-11-20T02:05:06;8.70;88.30
14022;DHT22;7086;48.116;11.580;2022-11-20T02:08:15;8.70;88.30
14022;DHT22;7086;48.116;11.580;2022-11-20T02:11:45;8.70;88.30
14022;DHT22;7086;48.116;11.580;2022-11-20T02:18:38;8.70;87.90
14022;DHT22;7086;48.116;11.580;2022-11-20T02:22:32;8.70;88.20
14022;DHT22;7086;48.116;11.580;2022-11-20T02:26:06;8.70;87.70
14022;DHT22;7086;48.116;11.580;2022-11-20T02:29:25;8.70;88.20
14022;DHT22;7086;48.116;11.580;2022-11-20T02:44:34;8.60;87.90
14022;DHT22;7086;48.116;11.580;2022-11-20T02:47:40;8.50;87.90
14022;DHT22;7086;48.116;11.580;2022-11-20T02:54:41;8.50;88.00
14022;DHT22;7086;48.116;11.580;2022-11-20T02:58:20;8.50;88.10
14022;DHT22;7086;48.116;11.580;2022-11-20T03:05:34;8.50;88.00
14022;DHT22;7086;48.116;11.580;2022-11-20T03:09:37;8.50;88.00
14022;DHT22;7086;48.116;11.580;2022-11-20T03:24:21;8.50;87.80
14022;DHT22;7086;48.116;11.580;2022-11-20T03:32:11;8.50;87.70
14022;DHT22;7086;48.116;11.580;2022-11-20T03:42:40;8.50;87.60
14022;DHT22;7086;48.116;11.580;2022-11-20T03:53:24;8.50;87.20
14022;DHT22;7086;48.116;11.580;2022-11-20T04:00:18;8.50;86.80
14022;DHT22;7086;48.116;11.580;2022-11-20T04:04:43;8.50;87.00
14022;DHT22;7086;48.116;11.580;2022-11-20T04:15:19;8.40;86.90
14022;DHT22;7086;48.116;11.580;2022-11-20T04:18:31;8.40;86.70
14022;DHT22;7086;48.116;11.580;2022-11-20T04:35:52;8.20;86.40
14022;DHT22;7086;48.116;11.580;2022-11-20T04:39:11;8.40;86.70
14022;DHT22;7086;48.116;11.580;2022-11-20T04:48:09;8.30;86.40
14022;DHT22;7086;48.116;11.580;2022-11-20T04:58:02;8.30;86.20
14022;DHT22;7086;48.116;11.580;2022-11-20T05:01:09;8.40;86.40
14022;DHT22;7086;48.116;11.580;2022-11-20T05:04:23;8.40;86.40
14022;DHT22;7086;48.116;11.580;2022-11-20T05:07:55;8.40;86.50
14022;DHT22;7086;48.116;11.580;2022-11-20T05:12:22;8.40;86.50
14022;DHT22;7086;48.116;11.580;2022-11-20T05:44:09;8.30;86.50
14022;DHT22;7086;48.116;11.580;2022-11-20T05:53:25;8.40;86.50
14022;DHT22;7086;48.116;11.580;2022-11-20T05:55:59;8.40;86.50
14022;DHT22;7086;48.116;11.580;2022-11-20T05:58:27;8.30;86.20
14022;DHT22;7086;48.116;11.580;2022-11-20T06:01:04;8.40;86.50
14022;DHT22;7086;48.116;11.580;2022-11-20T06:03:34;8.30;86.40
14022;DHT22;7086;48.116;11.580;2022-11-20T06:06:03;8.30;86.40
14022;DHT22;7086;48.116;11.580;2022-11-20T06:08:31;4.60;84.00
14022;DHT22;7086;48.116;11.580;2022-11-20T06:11:03;8.40;86.40
14022;DHT22;7086;48.116;11.580;2022-11-20T06:15:59;8.30;86.10
14022;DHT22;7086;48.116;11.580;2022-11-20T06:18:27;8.40;86.10
14022;DHT22;7086;48.116;11.580;2022-11-20T06:21:05;8.40;86.10
14022;DHT22;7086;48.116;11.580;2022-11-20T06:23:35;8.30;85.80
14022;DHT22;7086;48.116;11.580;2022-11-20T06:26:03;8.20;85.50
14022;DHT22;7086;48.116;11.580;2022-11-20T06:28:32;8.30;85.20
14022;DHT22;7086;48.116;11.580;2022-11-20T06:33:28;8.20;85.20
14022;DHT22;7086;48.116;11.580;2022-11-20T06:35:56;8.20;85.00
14022;DHT22;7086;48.116;11.580;2022-11-20T06:38:26;8.20;85.00
14022;DHT22;7086;48.116;11.580;2022-11-20T06:40:55;8.10;85.10
14022;DHT22;7086;48.116;11.580;2022-11-20T06:43:23;8.10;85.00
14022;DHT22;7086;48.116;11.580;2022-11-20T06:45:52;8.10;85.10
14022;DHT22;7086;48.116;11.580;2022-11-20T06:48:20;8.10;84.90
14022;DHT22;7086;48.116;11.580;2022-11-20T06:50:48;8.00;85.10
14022;DHT22;7086;48.116;11.580;2022-11-20T06:53:15;8.00;85.10
14022;DHT22;7086;48.116;11.580;2022-11-20T06:55:45;11.60;87.20
14022;DHT22;7086;48.116;11.580;2022-11-20T06:58:14;8.00;85.10
14022;DHT22;7086;48.116;11.580;2022-11-20T07:00:43;8.00;84.90
14022;DHT22;7086;48.116;11.580;2022-11-20T07:03:11;8.00;84.90
14022;DHT22;7086;48.116;11.580;2022-11-20T07:08:07;8.10;85.00
14022;DHT22;7086;48.116;11.580;2022-11-20T07:10:35;8.10;85.10
14022;DHT22;7086;48.116;11.580;2022-11-20T07:13:04;8.20;84.90
14022;DHT22;7086;48.116;11.580;2022-11-20T07:15:32;8.20;85.10
14022;DHT22;7086;48.116;11.580;2022-11-20T07:18:01;8.30;85.20
14022;DHT22;7086;48.116;11.580;2022-11-20T07:22:57;8.20;84.80
14022;DHT22;7086;48.116;11.580;2022-11-20T07:25:26;8.30;84.80
14022;DHT22;7086;48.116;11.580;2022-11-20T07:27:56;8.40;84.80
14022;DHT22;7086;48.116;11.580;2022-11-20T07:30:26;11.90;86.80
14022;DHT22;7086;48.116;11.580;2022-11-20T07:32:57;8.40;84.50
14022;DHT22;7086;48.116;11.580;2022-11-20T07:40:20;8.40;84.50
14022;DHT22;7086;48.116;11.580;2022-11-20T07:45:16;8.50;84.40
14022;DHT22;7086;48.116;11.580;2022-11-20T07:50:13;8.50;84.50
14022;DHT22;7086;48.116;11.580;2022-11-20T07:52:40;8.50;84.00
14022;DHT22;7086;48.116;11.580;2022-11-20T07:55:09;8.60;83.80
14022;DHT22;7086;48.116;11.580;2022-11-20T08:00:09;8.60;83.50
14022;DHT22;7086;48.116;11.580;2022-11-20T08:02:38;8.60;83.20
14022;DHT22;7086;48.116;11.580;2022-11-20T08:05:08;8.60;83.50
14022;DHT22;7086;48.116;11.580;2022-11-20T08:07:37;8.70;83.40
14022;DHT22;7086;48.116;11.580;2022-11-20T08:10:06;8.70;83.30
14022;DHT22;7086;48.116;11.580;2022-11-20T08:12:35;8.70;83.40
14022;DHT22;7086;48.116;11.580;2022-11-20T08:15:20;8.70;83.40
14022;DHT22;7086;48.116;11.580;2022-11-20T08:20:17;8.80;83.10
14022;DHT22;7086;48.116;11.580;2022-11-20T08:22:44;8.80;82.90
14022;DHT22;7086;48.116;11.580;2022-11-20T08:25:15;8.80;83.00
14022;DHT22;7086;48.116;11.580;2022-11-20T08:37:45;9.00;82.50
14022;DHT22;7086;48.116;11.580;2022-11-20T08:42:46;9.80;82.70
14022;DHT22;7086;48.116;11.580;2022-11-20T08:45:14;9.10;82.30
14022;DHT22;7086;48.116;11.580;2022-11-20T08:47:42;9.10;82.20
14022;DHT22;7086;48.116;11.580;2022-11-20T08:50:12;9.20;82.40
14022;DHT22;7086;48.116;11.580;2022-11-20T08:52:44;9.20;82.00
14022;DHT22;7086;48.116;11.580;2022-11-20T09:00:09;9.40;81.40
14022;DHT22;7086;48.116;11.580;2022-11-20T09:10:04;9.60;80.10
14022;DHT22;7086;48.116;11.580;2022-11-20T09:17:31;9.70;79.40
14022;DHT22;7086;48.116;11.580;2022-11-20T09:22:27;9.80;79.50
14022;DHT22;7086;48.116;11.580;2022-11-20T09:27:25;9.80;79.30
14022;DHT22;7086;48.116;11.580;2022-11-20T09:32:20;9.80;79.30
14022;DHT22;7086;48.116;11.580;2022-11-20T09:37:17;10.00;79.10
14022;DHT22;7086;48.116;11.580;2022-11-20T09:39:45;10.00;77.90
14022;DHT22;7086;48.116;11.580;2022-11-20T09:42:35;10.10;76.20
14022;DHT22;7086;48.116;11.580;2022-11-20T09:45:25;10.20;78.50
14022;DHT22;7086;48.116;11.580;2022-11-20T09:48:22;10.30;78.70
14022;DHT22;7086;48.116;11.580;2022-11-20T09:51:04;10.40;77.90
14022;DHT22;7086;48.116;11.580;2022-11-20T09:53:55;10.40;78.00
14022;DHT22;7086;48.116;11.580;2022-11-20T09:56:35;10.50;76.80
14022;DHT22;7086;48.116;11.580;2022-11-20T09:59:18;9.20;76.00
14022;DHT22;7086;48.116;11.580;2022-11-20T10:01:59;10.50;77.10
14022;DHT22;7086;48.116;11.580;2022-11-20T10:04:30;10.60;77.10
14022;DHT22;7086;48.116;11.580;2022-11-20T10:07:06;10.80;79.50
14022;DHT22;7086;48.116;11.580;2022-11-20T10:09:42;11.10;79.30
14022;DHT22;7086;48.116;11.580;2022-11-20T10:12:14;11.40;77.50
14022;DHT22;7086;48.116;11.580;2022-11-20T10:14:58;11.70;77.70
14022;DHT22;7086;48.116;11.580;2022-11-20T10:20:46;12.20;75.50
14022;DHT22;7086;48.116;11.580;2022-11-20T10:23:37;12.40;75.20
14022;DHT22;7086;48.116;11.580;2022-11-20T10:26:43;12.60;74.30
14022;DHT22;7086;48.116;11.580;2022-11-20T10:29:18;12.80;72.90
14022;DHT22;7086;48.116;11.580;2022-11-20T10:31:52;12.80;73.30
14022;DHT22;7086;48.116;11.580;2022-11-20T10:34:28;13.10;73.20
14022;DHT22;7086;48.116;11.580;2022-11-20T10:37:08;13.20;72.00
14022;DHT22;7086;48.116;11.580;2022-11-20T10:39:45;13.30;70.90
14022;DHT22;7086;48.116;11.580;2022-11-20T10:42:28;13.40;70.30
14022;DHT22;7086;48.116;11.580;2022-11-20T10:45:13;13.40;68.50
14022;DHT22;7086;48.116;11.580;2022-11-20T10:47:48;13.40;68.40
14022;DHT22;7086;48.116;11.580;2022-11-20T10:50:20;13.30;67.00
14022;DHT22;7086;48.116;11.580;2022-11-20T10:53:05;13.20;67.70
14022;DHT22;7086;48.116;11.580;2022-11-20T10:55:50;13.10;66.10
14022;DHT22;7086;48.116;11.580;2022-11-20T10:58:30;12.90;65.30
14022;DHT22;7086;48.116;11.580;2022-11-20T11:01:05;12.80;65.60
14022;DHT22;7086;48.116;11.580;2022-11-20T11:03:43;12.60;65.50
14022;DHT22;7086;48.116;11.580;2022-11-20T11:06:19;12.50;66.90
14022;DHT22;7086;48.116;11.580;2022-11-20T11:08:58;12.40;66.70
14022;DHT22;7086;48.116;11.580;2022-11-20T11:11:32;12.20;66.80
14022;DHT22;7086;48.116;11.580;2022-11-20T11:14:06;12.20;67.50
14022;DHT22;7086;48.116;11.580;2022-11-20T11:19:11;12.00;67.80
14022;DHT22;7086;48.116;11.580;2022-11-20T11:21:46;12.00;68.10
14022;DHT22;7086;48.116;11.580;2022-11-20T11:24:20;11.90;67.80
14022;DHT22;7086;48.116;11.580;2022-11-20T11:26:55;11.90;68.20
14022;DHT22;7086;48.116;11.580;2022-11-20T11:29:30;11.80;68.60
14022;DHT22;7086;48.116;11.580;2022-11-20T11:32:05;11.80;68.90
14022;DHT22;7086;48.116;11.580;2022-11-20T11:34:35;11.80;69.30
14022;DHT22;7086;48.116;11.580;2022-11-20T11:37:05;11.80;69.00
14022;DHT22;7086;48.116;11.580;2022-11-20T11:39:42;11.90;68.90
14022;DHT22;7086;48.116;11.580;2022-11-20T11:42:15;11.90;69.50
14022;DHT22;7086;48.116;11.580;2022-11-20T11:44:47;11.90;69.20
14022;DHT22;7086;48.116;11.580;2022-11-20T11:47:35;11.80;68.50
14022;DHT22;7086;48.116;11.580;2022-11-20T11:50:18;11.90;68.70
14022;DHT22;7086;48.116;11.580;2022-11-20T11:52:55;11.90;68.20
14022;DHT22;7086;48.116;11.580;2022-11-20T11:55:36;11.90;68.60
14022;DHT22;7086;48.116;11.580;2022-11-20T11:58:14;11.90;68.40
14022;DHT22;7086;48.116;11.580;2022-11-20T12:00:56;11.80;68.80
14022;DHT22;7086;48.116;11.580;2022-11-20T12:03:34;11.90;69.40
14022;DHT22;7086;48.116;11.580;2022-11-20T12:06:10;12.00;69.50
14022;DHT22;7086;48.116;11.580;2022-11-20T12:08:46;12.00;68.70
14022;DHT22;7086;48.116;11.580;2022-11-20T12:11:21;12.10;69.00
14022;DHT22;7086;48.116;11.580;2022-11-20T12:14:00;12.10;68.40
14022;DHT22;7086;48.116;11.580;2022-11-20T12:16:37;12.10;68.30
14022;DHT22;7086;48.116;11.580;2022-11-20T12:19:09;12.00;68.60
14022;DHT22;7086;48.116;11.580;2022-11-20T12:21:52;11.90;68.50
14022;DHT22;7086;48.116;11.580;2022-11-20T12:24:34;11.90;68.70
14022;DHT22;7086;48.116;11.580;2022-11-20T12:27:30;11.70;68.80
14022;DHT22;7086;48.116;11.580;2022-11-20T12:30:11;11.60;69.10
14022;DHT22;7086;48.116;11.580;2022-11-20T12:33:08;11.50;69.50
14022;DHT22;7086;48.116;11.580;2022-11-20T12:39:07;11.20;70.20
14022;DHT22;7086;48.116;11.580;2022-11-20T12:42:08;11.10;70.80
14022;DHT22;7086;48.116;11.580;2022-11-20T12:45:35;10.90;71.10
14022;DHT22;7086;48.116;11.580;2022-11-20T12:48:52;10.80;71.50
14022;DHT22;7086;48.116;11.580;2022-11-20T12:55:13;10.50;72.10
14022;DHT22;7086;48.116;11.580;2022-11-20T12:58:00;10.40;72.60
14022;DHT22;7086;48.116;11.580;2022-11-20T13:00:39;10.40;73.00
14022;DHT22;7086;48.116;11.580;2022-11-20T13:03:53;10.30;73.20
14022;DHT22;7086;48.116;11.580;2022-11-20T13:11:34;10.20;74.00
14022;DHT22;7086;48.116;11.580;2022-11-20T13:14:15;10.20;74.40
14022;DHT22;7086;48.116;11.580;2022-11-20T13:16:55;10.10;74.50
14022;DHT22;7086;48.116;11.580;2022-11-20T13:21:57;10.10;74.80
14022;DHT22;7086;48.116;11.580;2022-11-20T13:24:27;9.50;74.40
14022;DHT22;7086;48.116;11.580;2022-11-20T13:27:26;10.10;74.90
14022;DHT22;7086;48.116;11.580;2022-11-20T13:30:03;10.10;74.80
14022;DHT22;7086;48.116;11.580;2022-11-20T13:32:50;10.00;75.00
14022;DHT22;7086;48.116;11.580;2022-11-20T13:35:28;10.00;75.40
14022;DHT22;7086;48.116;11.580;2022-11-20T13:38:04;9.90;75.60
14022;DHT22;7086;48.116;11.580;2022-11-20T13:40:49;9.90;75.90
14022;DHT22;7086;48.116;11.580;2022-11-20T13:43:28;9.80;75.90
14022;DHT22;7086;48.116;11.580;2022-11-20T14:50:51;9.80;77.20
14022;DHT22;7086;48.116;11.580;2022-11-20T14:53:50;9.60;75.90
14022;DHT22;7086;48.116;11.580;2022-11-20T14:57:43;9.80;76.90
14022;DHT22;7086;48.116;11.580;2022-11-20T15:01:38;9.80;76.80
14022;DHT22;7086;48.116;11.580;2022-11-20T15:22:23;7.50;74.80
14022;DHT22;7086;48.116;11.580;2022-11-20T15:24:54;9.50;76.50
14022;DHT22;7086;48.116;11.580;2022-11-20T15:29:53;9.50;76.70
14022;DHT22;7086;48.116;11.580;2022-11-20T15:32:21;9.50;76.80
14022;DHT22;7086;48.116;11.580;2022-11-20T15:45:00;9.30;76.40
14022;DHT22;7086;48.116;11.580;2022-11-20T15:47:46;9.40;76.60
14022;DHT22;7086;48.116;11.580;2022-11-20T15:50:39;9.30;76.50
14022;DHT22;7086;48.116;11.580;2022-11-20T15:53:37;9.30;76.50
14022;DHT22;7086;48.116;11.580;2022-11-20T15:56:42;9.20;76.40
14022;DHT22;7086;48.116;11.580;2022-11-20T15:59:20;9.20;76.60
14022;DHT22;7086;48.116;11.580;2022-11-20T16:02:23;9.10;76.60
14022;DHT22;7086;48.116;11.580;2022-11-20T16:10:15;8.90;76.70
14022;DHT22;7086;48.116;11.580;2022-11-20T16:12:55;8.80;77.20
14022;DHT22;7086;48.116;11.580;2022-11-20T16:15:58;8.70;77.30
14022;DHT22;7086;48.116;11.580;2022-11-20T16:18:40;8.70;77.00
14022;DHT22;7086;48.116;11.580;2022-11-20T16:21:22;8.60;77.70
14022;DHT22;7086;48.116;11.580;2022-11-20T16:24:01;8.60;78.00
14022;DHT22;7086;48.116;11.580;2022-11-20T16:26:51;8.50;78.10
14022;DHT22;7086;48.116;11.580;2022-11-20T16:32:02;11.60;80.10
14022;DHT22;7086;48.116;11.580;2022-11-20T16:34:53;9.40;78.40
14022;DHT22;7086;48.116;11.580;2022-11-20T16:37:35;8.30;78.50
14022;DHT22;7086;48.116;11.580;2022-11-20T16:40:08;8.20;78.50
14022;DHT22;7086;48.116;11.580;2022-11-20T16:42:41;8.20;78.70
14022;DHT22;7086;48.116;11.580;2022-11-20T16:45:30;8.10;78.60
14022;DHT22;7086;48.116;11.580;2022-11-20T16:47:59;8.10;78.90
14022;DHT22;7086;48.116;11.580;2022-11-20T16:50:30;8.10;78.80
14022;DHT22;7086;48.116;11.580;2022-11-20T16:53:14;8.10;78.90
14022;DHT22;7086;48.116;11.580;2022-11-20T16:55:44;8.00;79.50
14022;DHT22;7086;48.116;11.580;2022-11-20T16:58:13;8.80;80.10
14022;DHT22;7086;48.116;11.580;2022-11-20T17:03:54;7.90;79.80
14022;DHT22;7086;48.116;11.580;2022-11-20T17:06:27;7.70;80.00
14022;DHT22;7086;48.116;11.580;2022-11-20T17:09:12;7.80;80.20
14022;DHT22;7086;48.116;11.580;2022-11-20T17:11:42;7.80;80.40
14022;DHT22;7086;48.116;11.580;2022-11-20T17:14:23;7.70;80.20
14022;DHT22;7086;48.116;11.580;2022-11-20T17:19:32;7.70;80.80
14022;DHT22;7086;48.116;11.580;2022-11-20T17:24:28;7.60;80.60
14022;DHT22;7086;48.116;11.580;2022-11-20T17:29:30;7.60;84.30
14022;DHT22;7086;48.116;11.580;2022-11-20T17:32:00;7.70;84.50
14022;DHT22;7086;48.116;11.580;2022-11-20T17:34:38;7.50;83.80
14022;DHT22;7086;48.116;11.580;2022-11-20T17:37:27;7.80;84.80
14022;DHT22;7086;48.116;11.580;2022-11-20T17:40:13;8.00;83.40
14022;DHT22;7086;48.116;11.580;2022-11-20T17:42:47;7.90;83.10
14022;DHT22;7086;48.116;11.580;2022-11-20T17:45:34;7.90;82.20
14022;DHT22;7086;48.116;11.580;2022-11-20T17:48:13;7.80;82.10
14022;DHT22;7086;48.116;11.580;2022-11-20T17:53:18;7.70;81.40
14022;DHT22;7086;48.116;11.580;2022-11-20T17:56:03;7.70;81.70
14022;DHT22;7086;48.116;11.580;2022-11-20T17:59:10;7.60;81.70
14022;DHT22;7086;48.116;11.580;2022-11-20T18:01:51;7.60;81.60
14022;DHT22;7086;48.116;11.580;2022-11-20T18:04:41;7.50;81.90
14022;DHT22;7086;48.116;11.580;2022-11-20T18:07:52;7.40;81.90
14022;DHT22;7086;48.116;11.580;2022-11-20T18:16:22;7.30;82.40
14022;DHT22;7086;48.116;11.580;2022-11-20T18:18:58;7.20;82.60
14022;DHT22;7086;48.116;11.580;2022-11-20T18:21:29;7.20;82.80
14022;DHT22;7086;48.116;11.580;2022-11-20T18:24:41;7.20;82.90
14022;DHT22;7086;48.116;11.580;2022-11-20T18:27:14;7.20;82.70
14022;DHT22;7086;48.116;11.580;2022-11-20T18:29:47;7.20;82.90
14022;DHT22;7086;48.116;11.580;2022-11-20T18:32:19;7.20;82.30
14022;DHT22;7086;48.116;11.580;2022-11-20T18:34:58;7.20;82.80
14022;DHT22;7086;48.116;11.580;2022-11-20T18:40:06;7.20;83.30
14022;DHT22;7086;48.116;11.580;2022-11-20T18:42:55;7.20;83.30
14022;DHT22;7086;48.116;11.580;2022-11-20T18:46:01;7.20;83.30
14022;DHT22;7086;48.116;11.580;2022-11-20T18:51:10;7.20;83.30
14022;DHT22;7086;48.116;11.580;2022-11-20T19:01:09;7.20;82.80
14022;DHT22;7086;48.116;11.580;2022-11-20T19:03:46;7.20;83.00
14022;DHT22;7086;48.116;11.580;2022-11-20T19:18:11;7.20;83.00
14022;DHT22;7086;48.116;11.580;2022-11-20T19:20:44;7.10;82.90
14022;DHT22;7086;48.116;11.580;2022-11-20T19:23:29;7.00;83.20
14022;DHT22;7086;48.116;11.580;2022-11-20T19:25:58;7.00;83.30
14022;DHT22;7086;48.116;11.580;2022-11-20T19:28:32;7.00;83.20
14022;DHT22;7086;48.116;11.580;2022-11-20T19:31:08;7.00;83.30
14022;DHT22;7086;48.116;11.580;2022-11-20T19:33:45;6.90;83.30
14022;DHT22;7086;48.116;11.580;2022-11-20T19:36:21;6.80;83.30
14022;DHT22;7086;48.116;11.580;2022-11-20T19:41:36;6.70;83.50
14022;DHT22;7086;48.116;11.580;2022-11-20T19:44:09;6.80;83.90
14022;DHT22;7086;48.116;11.580;2022-11-20T19:46:41;6.70;83.90
14022;DHT22;7086;48.116;11.580;2022-11-20T19:54:36;6.70;83.70
14022;DHT22;7086;48.116;11.580;2022-11-20T19:57:23;6.60;83.80
14022;DHT22;7086;48.116;11.580;2022-11-20T20:00:04;6.70;84.00
14022;DHT22;7086;48.116;11.580;2022-11-20T20:02:54;6.70;84.00
14022;DHT22;7086;48.116;11.580;2022-11-20T20:05:48;6.60;84.00
14022;DHT22;7086;48.116;11.580;2022-11-20T20:08:32;6.70;84.00
14022;DHT22;7086;48.116;11.580;2022-11-20T20:11:22;6.60;84.00
14022;DHT22;7086;48.116;11.580;2022-11-20T20:14:11;10.20;86.10
14022;DHT22;7086;48.116;11.580;2022-11-20T20:17:03;6.60;83.90
14022;DHT22;7086;48.116;11.580;2022-11-20T20:25:22;6.60;83.90
14022;DHT22;7086;48.116;11.580;2022-11-20T20:28:08;6.60;83.80
14022;DHT22;7086;48.116;11.580;2022-11-20T20:33:18;6.60;84.40
14022;DHT22;7086;48.116;11.580;2022-11-20T20:36:19;6.60;84.40
14022;DHT22;7086;48.116;11.580;2022-11-20T20:39:25;6.60;84.50
14022;DHT22;7086;48.116;11.580;2022-11-20T20:42:15;6.50;84.50
14022;DHT22;7086;48.116;11.580;2022-11-20T20:45:07;6.60;84.40
14022;DHT22;7086;48.116;11.580;2022-11-20T20:47:43;6.60;84.80
14022;DHT22;7086;48.116;11.580;2022-11-20T20:50:36;5.10;83.30
14022;DHT22;7086;48.116;11.580;2022-11-20T20:58:56;6.50;84.50
14022;DHT22;7086;48.116;11.580;2022-11-20T21:01:36;6.60;84.40
14022;DHT22;7086;48.116;11.580;2022-11-20T21:04:22;6.60;84.70
14022;DHT22;7086;48.116;11.580;2022-11-20T22:57:02;7.20;85.10
14022;DHT22;7086;48.116;11.580;2022-11-20T23:15:14;7.00;87.00
14022;DHT22;7086;48.116;11.580;2022-11-20T23:33:35;6.70;87.80
